sensor_id;sensor_type;location;lat;lon;timestamp;pressure;altitude;pressure_sealevel;temperature;humidity
64679;BME280;51094;53.864;27.676;2023-04-16T00:01:59;99669.84;;;3.66;75.62
64679;BME280;51094;53.864;27.676;2023-04-16T00:04:27;99737.06;;;4.04;76.32
64679;BME280;51094;53.864;27.676;2023-04-16T00:06:54;99637.84;;;3.50;76.65
64679;BME280;51094;53.864;27.676;2023-04-16T00:09:21;99698.31;;;3.85;76.00
64679;BME280;51094;53.864;27.676;2023-04-16T00:11:47;99731.69;;;4.10;75.61
64679;BME280;51094;53.864;27.676;2023-04-16T00:14:14;99724.75;;;4.12;75.98
64679;BME280;51094;53.864;27.676;2023-04-16T00:16:41;99703.00;;;3.97;76.11
64679;BME280;51094;53.864;27.676;2023-04-16T00:19:08;99681.91;;;3.64;76.71
64679;BME280;51094;53.864;27.676;2023-04-16T00:21:35;99659.94;;;3.55;76.55
64679;BME280;51094;53.864;27.676;2023-04-16T00:24:02;99651.84;;;3.43;77.41
64679;BME280;51094;53.864;27.676;2023-04-16T00:26:29;99698.97;;;3.66;77.12
64679;BME280;51094;53.864;27.676;2023-04-16T00:28:56;99600.84;;;3.06;77.75
64679;BME280;51094;53.864;27.676;2023-04-16T00:31:27;99717.38;;;3.79;77.48
64679;BME280;51094;53.864;27.676;2023-04-16T00:33:55;99664.75;;;3.41;78.25
64679;BME280;51094;53.864;27.676;2023-04-16T00:36:23;99663.56;;;3.50;78.06
64679;BME280;51094;53.864;27.676;2023-04-16T00:38:50;99688.72;;;3.65;77.64
64679;BME280;51094;53.864;27.676;2023-04-16T00:41:17;99652.69;;;3.43;78.42
64679;BME280;51094;53.864;27.676;2023-04-16T00:43:44;99671.72;;;3.61;78.01
64679;BME280;51094;53.864;27.676;2023-04-16T00:46:11;99653.72;;;3.61;78.32
64679;BME280;51094;53.864;27.676;2023-04-16T00:48:39;99684.06;;;3.76;77.76
64679;BME280;51094;53.864;27.676;2023-04-16T00:51:07;99498.69;;;2.65;77.30
64679;BME280;51094;53.864;27.676;2023-04-16T00:53:34;99631.22;;;3.44;77.32
64679;BME280;51094;53.864;27.676;2023-04-16T00:56:04;99696.59;;;3.85;77.42
64679;BME280;51094;53.864;27.676;2023-04-16T00:58:33;99684.84;;;3.78;78.31
64679;BME280;51094;53.864;27.676;2023-04-16T01:01:01;99696.66;;;3.84;77.40
64679;BME280;51094;53.864;27.676;2023-04-16T01:03:37;99710.59;;;4.00;78.37
64679;BME280;51094;53.864;27.676;2023-04-16T01:06:08;99673.81;;;3.75;78.29
64679;BME280;51094;53.864;27.676;2023-04-16T01:08:35;99708.94;;;3.99;77.76
64679;BME280;51094;53.864;27.676;2023-04-16T01:11:02;99601.69;;;3.31;78.19
64679;BME280;51094;53.864;27.676;2023-04-16T01:13:30;99644.50;;;3.55;78.29
64679;BME280;51094;53.864;27.676;2023-04-16T01:15:57;99691.34;;;3.88;78.38
64679;BME280;51094;53.864;27.676;2023-04-16T01:18:24;99704.63;;;3.99;78.73
64679;BME280;51094;53.864;27.676;2023-04-16T01:20:51;99703.63;;;4.04;78.32
64679;BME280;51094;53.864;27.676;2023-04-16T01:23:18;99696.72;;;4.04;78.49
64679;BME280;51094;53.864;27.676;2023-04-16T01:25:46;99642.34;;;3.68;78.42
64679;BME280;51094;53.864;27.676;2023-04-16T01:28:13;99702.28;;;4.17;78.40
64679;BME280;51094;53.864;27.676;2023-04-16T01:30:40;99711.50;;;4.22;77.99
64679;BME280;51094;53.864;27.676;2023-04-16T01:33:17;99698.63;;;4.22;78.24
64679;BME280;51094;53.864;27.676;2023-04-16T01:35:44;99680.94;;;4.13;78.34
64679;BME280;51094;53.864;27.676;2023-04-16T01:38:14;99632.44;;;3.81;78.48
64679;BME280;51094;53.864;27.676;2023-04-16T01:40:40;99643.47;;;3.84;78.51
64679;BME280;51094;53.864;27.676;2023-04-16T01:43:07;99691.81;;;4.21;78.41
64679;BME280;51094;53.864;27.676;2023-04-16T01:45:34;99674.69;;;4.20;78.56
64679;BME280;51094;53.864;27.676;2023-04-16T01:48:02;99677.25;;;4.20;78.45
64679;BME280;51094;53.864;27.676;2023-04-16T01:50:29;99641.31;;;3.95;78.59
64679;BME280;51094;53.864;27.676;2023-04-16T01:52:56;99611.03;;;3.80;78.77
64679;BME280;51094;53.864;27.676;2023-04-16T01:55:23;99681.22;;;4.29;79.18
64679;BME280;51094;53.864;27.676;2023-04-16T01:57:50;99681.63;;;4.40;79.46
64679;BME280;51094;53.864;27.676;2023-04-16T02:00:19;99636.47;;;4.10;78.13
64679;BME280;51094;53.864;27.676;2023-04-16T02:02:46;99661.88;;;4.19;78.30
64679;BME280;51094;53.864;27.676;2023-04-16T02:05:19;99661.88;;;4.19;79.12
64679;BME280;51094;53.864;27.676;2023-04-16T02:07:46;99618.47;;;3.88;79.41
64679;BME280;51094;53.864;27.676;2023-04-16T02:10:13;99685.47;;;4.30;79.79
64679;BME280;51094;53.864;27.676;2023-04-16T02:12:39;99540.81;;;3.08;79.05
64679;BME280;51094;53.864;27.676;2023-04-16T02:15:07;99622.28;;;3.99;80.14
64679;BME280;51094;53.864;27.676;2023-04-16T02:17:34;99546.91;;;3.52;79.78
64679;BME280;51094;53.864;27.676;2023-04-16T02:20:09;99613.31;;;3.88;79.87
64679;BME280;51094;53.864;27.676;2023-04-16T02:22:46;99637.50;;;4.06;79.91
64679;BME280;51094;53.864;27.676;2023-04-16T02:25:16;99697.13;;;4.39;80.61
64679;BME280;51094;53.864;27.676;2023-04-16T02:27:43;99689.72;;;4.31;80.40
64679;BME280;51094;53.864;27.676;2023-04-16T02:30:23;99672.00;;;4.23;80.55
64679;BME280;51094;53.864;27.676;2023-04-16T02:32:51;99679.88;;;4.41;80.61
64679;BME280;51094;53.864;27.676;2023-04-16T02:35:18;99653.09;;;4.01;80.20
64679;BME280;51094;53.864;27.676;2023-04-16T02:37:45;99684.91;;;4.44;81.04
64679;BME280;51094;53.864;27.676;2023-04-16T02:40:12;99623.00;;;4.03;80.94
64679;BME280;51094;53.864;27.676;2023-04-16T02:42:39;99657.66;;;4.38;81.04
64679;BME280;51094;53.864;27.676;2023-04-16T02:45:07;99655.09;;;4.38;81.27
64679;BME280;51094;53.864;27.676;2023-04-16T02:47:34;99693.66;;;4.61;81.13
64679;BME280;51094;53.864;27.676;2023-04-16T02:50:01;99562.94;;;3.82;81.11
64679;BME280;51094;53.864;27.676;2023-04-16T02:52:28;99688.34;;;4.66;80.85
64679;BME280;51094;53.864;27.676;2023-04-16T02:54:55;99652.41;;;4.41;80.92
64679;BME280;51094;53.864;27.676;2023-04-16T02:57:22;99615.97;;;4.30;81.17
64679;BME280;51094;53.864;27.676;2023-04-16T02:59:48;99689.72;;;4.75;80.37
64679;BME280;51094;53.864;27.676;2023-04-16T03:02:15;99626.44;;;4.25;80.50
64679;BME280;51094;53.864;27.676;2023-04-16T03:04:42;99602.91;;;4.13;80.75
64679;BME280;51094;53.864;27.676;2023-04-16T03:07:09;99691.75;;;4.66;80.83
64679;BME280;51094;53.864;27.676;2023-04-16T03:09:38;99518.09;;;3.66;81.25
64679;BME280;51094;53.864;27.676;2023-04-16T03:12:05;99670.50;;;4.61;80.74
64679;BME280;51094;53.864;27.676;2023-04-16T03:14:32;99653.06;;;4.46;81.41
64679;BME280;51094;53.864;27.676;2023-04-16T03:16:59;99708.50;;;4.77;81.58
64679;BME280;51094;53.864;27.676;2023-04-16T03:19:26;99706.59;;;4.82;81.07
64679;BME280;51094;53.864;27.676;2023-04-16T03:21:52;99703.75;;;4.88;80.99
64679;BME280;51094;53.864;27.676;2023-04-16T03:24:19;99704.66;;;4.87;81.61
64679;BME280;51094;53.864;27.676;2023-04-16T03:26:47;99553.03;;;3.93;80.70
64679;BME280;51094;53.864;27.676;2023-04-16T03:29:14;99708.25;;;4.83;81.61
64679;BME280;51094;53.864;27.676;2023-04-16T03:31:41;99590.22;;;4.08;82.05
64679;BME280;51094;53.864;27.676;2023-04-16T03:34:08;99707.41;;;4.82;81.62
64679;BME280;51094;53.864;27.676;2023-04-16T03:36:37;99553.53;;;3.81;81.52
64679;BME280;51094;53.864;27.676;2023-04-16T03:39:04;99706.69;;;4.79;82.27
64679;BME280;51094;53.864;27.676;2023-04-16T03:41:31;99694.41;;;4.65;82.05
64679;BME280;51094;53.864;27.676;2023-04-16T03:43:59;99713.81;;;4.74;82.41
64679;BME280;51094;53.864;27.676;2023-04-16T03:46:26;99717.91;;;4.78;81.99
64679;BME280;51094;53.864;27.676;2023-04-16T03:48:53;99728.16;;;4.79;82.46
64679;BME280;51094;53.864;27.676;2023-04-16T03:51:20;99633.56;;;4.19;82.50
64679;BME280;51094;53.864;27.676;2023-04-16T03:53:47;99630.63;;;4.28;82.70
64679;BME280;51094;53.864;27.676;2023-04-16T03:56:13;99696.66;;;4.73;83.18
64679;BME280;51094;53.864;27.676;2023-04-16T03:58:40;99632.22;;;4.52;82.56
64679;BME280;51094;53.864;27.676;2023-04-16T04:01:07;99721.06;;;5.06;82.55
64679;BME280;51094;53.864;27.676;2023-04-16T04:03:35;99691.66;;;4.90;82.47
64679;BME280;51094;53.864;27.676;2023-04-16T04:06:09;99705.41;;;5.11;82.28
64679;BME280;51094;53.864;27.676;2023-04-16T04:08:35;99626.72;;;4.61;82.00
64679;BME280;51094;53.864;27.676;2023-04-16T04:11:03;99715.66;;;5.12;82.05
64679;BME280;51094;53.864;27.676;2023-04-16T04:13:32;99716.94;;;5.02;82.42
64679;BME280;51094;53.864;27.676;2023-04-16T04:15:58;99641.50;;;4.56;82.79
64679;BME280;51094;53.864;27.676;2023-04-16T04:18:26;99658.22;;;4.68;82.62
64679;BME280;51094;53.864;27.676;2023-04-16T04:20:53;99715.19;;;5.03;82.58
64679;BME280;51094;53.864;27.676;2023-04-16T04:23:24;99653.25;;;4.63;83.46
64679;BME280;51094;53.864;27.676;2023-04-16T04:25:51;99685.47;;;4.94;83.06
64679;BME280;51094;53.864;27.676;2023-04-16T04:28:17;99694.22;;;4.90;83.08
64679;BME280;51094;53.864;27.676;2023-04-16T04:30:44;99657.91;;;4.54;83.43
64679;BME280;51094;53.864;27.676;2023-04-16T04:33:11;99678.41;;;4.77;83.50
64679;BME280;51094;53.864;27.676;2023-04-16T04:35:38;99704.06;;;5.02;83.33
64679;BME280;51094;53.864;27.676;2023-04-16T04:38:07;99715.25;;;5.21;82.91
64679;BME280;51094;53.864;27.676;2023-04-16T04:40:34;99719.47;;;5.24;83.11
64679;BME280;51094;53.864;27.676;2023-04-16T04:43:02;99698.34;;;5.16;83.18
64679;BME280;51094;53.864;27.676;2023-04-16T04:45:28;99651.06;;;4.75;82.81
64679;BME280;51094;53.864;27.676;2023-04-16T04:47:57;99675.03;;;4.97;82.77
64679;BME280;51094;53.864;27.676;2023-04-16T04:50:24;99663.00;;;4.97;83.80
64679;BME280;51094;53.864;27.676;2023-04-16T04:52:51;99684.97;;;5.06;83.20
64679;BME280;51094;53.864;27.676;2023-04-16T04:55:18;99724.94;;;5.37;84.10
64679;BME280;51094;53.864;27.676;2023-04-16T04:57:44;99618.97;;;4.82;83.73
64679;BME280;51094;53.864;27.676;2023-04-16T05:00:11;99723.66;;;5.47;83.49
64679;BME280;51094;53.864;27.676;2023-04-16T05:02:45;99594.50;;;4.51;83.06
64679;BME280;51094;53.864;27.676;2023-04-16T05:05:13;99728.75;;;5.48;83.68
64679;BME280;51094;53.864;27.676;2023-04-16T05:07:40;99672.63;;;5.14;83.58
64679;BME280;51094;53.864;27.676;2023-04-16T05:10:07;99686.66;;;5.27;83.52
64679;BME280;51094;53.864;27.676;2023-04-16T05:12:34;99641.41;;;5.00;83.99
64679;BME280;51094;53.864;27.676;2023-04-16T05:15:01;99731.16;;;5.53;83.41
64679;BME280;51094;53.864;27.676;2023-04-16T05:17:27;99528.03;;;4.19;83.56
64679;BME280;51094;53.864;27.676;2023-04-16T05:19:54;99730.44;;;5.49;83.43
64679;BME280;51094;53.864;27.676;2023-04-16T05:22:21;99675.97;;;5.16;84.21
64679;BME280;51094;53.864;27.676;2023-04-16T05:24:48;99711.84;;;5.41;83.84
64679;BME280;51094;53.864;27.676;2023-04-16T05:27:14;99690.53;;;5.38;83.85
64679;BME280;51094;53.864;27.676;2023-04-16T05:29:41;99735.00;;;5.63;83.83
64679;BME280;51094;53.864;27.676;2023-04-16T05:32:08;99739.59;;;5.56;84.23
64679;BME280;51094;53.864;27.676;2023-04-16T05:34:35;99602.25;;;4.72;83.54
64679;BME280;51094;53.864;27.676;2023-04-16T05:37:01;99684.72;;;5.32;84.10
64679;BME280;51094;53.864;27.676;2023-04-16T05:39:28;99736.66;;;5.64;84.32
64679;BME280;51094;53.864;27.676;2023-04-16T05:41:55;99739.25;;;5.64;84.58
64679;BME280;51094;53.864;27.676;2023-04-16T05:44:22;99672.13;;;5.25;84.34
64679;BME280;51094;53.864;27.676;2023-04-16T05:46:48;99707.28;;;5.48;84.82
64679;BME280;51094;53.864;27.676;2023-04-16T05:49:16;99747.75;;;5.66;84.42
64679;BME280;51094;53.864;27.676;2023-04-16T05:51:44;99743.25;;;5.71;84.79
64679;BME280;51094;53.864;27.676;2023-04-16T05:54:11;99739.69;;;5.74;84.62
64679;BME280;51094;53.864;27.676;2023-04-16T05:56:38;99723.63;;;5.67;84.67
64679;BME280;51094;53.864;27.676;2023-04-16T05:59:04;99642.78;;;5.09;84.63
64679;BME280;51094;53.864;27.676;2023-04-16T06:01:31;99756.78;;;5.76;85.09
64679;BME280;51094;53.864;27.676;2023-04-16T06:03:59;99744.72;;;5.77;84.40
64679;BME280;51094;53.864;27.676;2023-04-16T06:06:26;99732.56;;;5.60;85.25
64679;BME280;51094;53.864;27.676;2023-04-16T06:08:53;99747.38;;;5.75;85.00
64679;BME280;51094;53.864;27.676;2023-04-16T06:11:20;99760.06;;;5.80;84.75
64679;BME280;51094;53.864;27.676;2023-04-16T06:13:47;99756.41;;;5.85;85.43
64679;BME280;51094;53.864;27.676;2023-04-16T06:16:14;99641.25;;;5.23;85.15
64679;BME280;51094;53.864;27.676;2023-04-16T06:18:40;99737.41;;;5.86;84.81
64679;BME280;51094;53.864;27.676;2023-04-16T06:21:07;99686.25;;;5.57;85.28
64679;BME280;51094;53.864;27.676;2023-04-16T06:23:34;99766.72;;;6.06;84.84
64679;BME280;51094;53.864;27.676;2023-04-16T06:26:01;99674.41;;;5.53;84.77
64679;BME280;51094;53.864;27.676;2023-04-16T06:28:28;99715.97;;;5.65;84.84
64679;BME280;51094;53.864;27.676;2023-04-16T06:30:54;99770.22;;;6.05;84.76
64679;BME280;51094;53.864;27.676;2023-04-16T06:33:21;99753.94;;;6.03;84.97
64679;BME280;51094;53.864;27.676;2023-04-16T06:35:48;99756.09;;;5.93;84.83
64679;BME280;51094;53.864;27.676;2023-04-16T06:38:15;99747.31;;;5.97;85.25
64679;BME280;51094;53.864;27.676;2023-04-16T06:40:41;99687.28;;;5.53;85.30
64679;BME280;51094;53.864;27.676;2023-04-16T06:43:08;99723.31;;;5.95;86.12
64679;BME280;51094;53.864;27.676;2023-04-16T06:45:35;99730.00;;;5.99;85.01
64679;BME280;51094;53.864;27.676;2023-04-16T06:48:02;99777.41;;;6.36;86.03
64679;BME280;51094;53.864;27.676;2023-04-16T06:50:30;99772.06;;;6.40;84.97
64679;BME280;51094;53.864;27.676;2023-04-16T06:52:57;99674.72;;;5.84;85.76
64679;BME280;51094;53.864;27.676;2023-04-16T06:55:24;99773.63;;;6.24;84.59
64679;BME280;51094;53.864;27.676;2023-04-16T06:57:51;99778.91;;;6.41;85.45
64679;BME280;51094;53.864;27.676;2023-04-16T07:00:18;99706.78;;;5.99;85.56
64679;BME280;51094;53.864;27.676;2023-04-16T07:02:44;99706.72;;;6.00;85.14
64679;BME280;51094;53.864;27.676;2023-04-16T07:05:11;99731.19;;;6.11;85.87
64679;BME280;51094;53.864;27.676;2023-04-16T07:07:38;99761.84;;;6.37;85.45
64679;BME280;51094;53.864;27.676;2023-04-16T07:10:05;99794.72;;;6.52;85.37
64679;BME280;51094;53.864;27.676;2023-04-16T07:12:33;99763.25;;;6.44;85.24
64679;BME280;51094;53.864;27.676;2023-04-16T07:15:00;99790.94;;;6.59;85.37
64679;BME280;51094;53.864;27.676;2023-04-16T07:17:26;99751.22;;;6.24;85.26
64679;BME280;51094;53.864;27.676;2023-04-16T07:19:53;99765.75;;;6.27;85.20
64679;BME280;51094;53.864;27.676;2023-04-16T07:22:20;99772.88;;;6.22;85.87
64679;BME280;51094;53.864;27.676;2023-04-16T07:24:47;99801.63;;;6.52;85.80
64679;BME280;51094;53.864;27.676;2023-04-16T07:27:13;99800.97;;;6.48;86.03
64679;BME280;51094;53.864;27.676;2023-04-16T07:29:40;99799.28;;;6.47;85.94
64679;BME280;51094;53.864;27.676;2023-04-16T07:32:07;99798.22;;;6.51;86.45
64679;BME280;51094;53.864;27.676;2023-04-16T07:34:34;99804.84;;;6.57;86.21
64679;BME280;51094;53.864;27.676;2023-04-16T07:37:01;99810.84;;;6.57;85.62
64679;BME280;51094;53.864;27.676;2023-04-16T07:39:28;99763.81;;;6.32;86.46
64679;BME280;51094;53.864;27.676;2023-04-16T07:41:54;99812.41;;;6.61;86.08
64679;BME280;51094;53.864;27.676;2023-04-16T07:44:21;99816.72;;;6.61;86.08
64679;BME280;51094;53.864;27.676;2023-04-16T07:46:48;99786.56;;;6.43;86.13
64679;BME280;51094;53.864;27.676;2023-04-16T07:49:15;99815.47;;;6.51;85.98
64679;BME280;51094;53.864;27.676;2023-04-16T07:51:42;99801.31;;;6.41;86.73
64679;BME280;51094;53.864;27.676;2023-04-16T07:54:09;99827.34;;;6.55;86.89
64679;BME280;51094;53.864;27.676;2023-04-16T07:56:36;99816.78;;;6.59;87.12
64679;BME280;51094;53.864;27.676;2023-04-16T07:59:03;99723.31;;;5.95;86.76
64679;BME280;51094;53.864;27.676;2023-04-16T08:01:47;99788.13;;;6.47;87.15
64679;BME280;51094;53.864;27.676;2023-04-16T08:04:14;99829.78;;;6.77;86.45
64679;BME280;51094;53.864;27.676;2023-04-16T08:06:43;99830.50;;;6.80;86.89
64679;BME280;51094;53.864;27.676;2023-04-16T08:09:09;99836.56;;;6.79;86.12
64679;BME280;51094;53.864;27.676;2023-04-16T08:11:36;99831.34;;;6.81;86.43
64679;BME280;51094;53.864;27.676;2023-04-16T08:14:03;99791.28;;;6.52;86.72
64679;BME280;51094;53.864;27.676;2023-04-16T08:16:30;99809.53;;;6.67;86.54
64679;BME280;51094;53.864;27.676;2023-04-16T08:18:57;99849.28;;;6.84;86.65
64679;BME280;51094;53.864;27.676;2023-04-16T08:21:26;99842.72;;;6.77;86.25
64679;BME280;51094;53.864;27.676;2023-04-16T08:23:55;99854.59;;;6.81;86.09
64679;BME280;51094;53.864;27.676;2023-04-16T08:26:22;99843.91;;;6.88;86.91
64679;BME280;51094;53.864;27.676;2023-04-16T08:28:49;99849.19;;;7.04;87.02
64679;BME280;51094;53.864;27.676;2023-04-16T08:31:16;99848.69;;;6.96;86.03
64679;BME280;51094;53.864;27.676;2023-04-16T08:33:42;99848.69;;;6.96;86.14
64679;BME280;51094;53.864;27.676;2023-04-16T08:36:09;99845.50;;;6.91;85.53
64679;BME280;51094;53.864;27.676;2023-04-16T08:38:36;99849.84;;;6.90;86.31
64679;BME280;51094;53.864;27.676;2023-04-16T08:41:05;99827.97;;;6.79;86.12
64679;BME280;51094;53.864;27.676;2023-04-16T08:43:36;99841.19;;;6.91;85.87
64679;BME280;51094;53.864;27.676;2023-04-16T08:46:05;99851.34;;;6.94;86.67
64679;BME280;51094;53.864;27.676;2023-04-16T08:48:34;99840.16;;;6.94;86.31
64679;BME280;51094;53.864;27.676;2023-04-16T08:51:01;99842.41;;;7.01;85.99
64679;BME280;51094;53.864;27.676;2023-04-16T08:53:35;99814.50;;;6.91;86.09
64679;BME280;51094;53.864;27.676;2023-04-16T08:56:05;99851.91;;;7.20;85.77
64679;BME280;51094;53.864;27.676;2023-04-16T08:58:36;99849.09;;;7.24;85.45
64679;BME280;51094;53.864;27.676;2023-04-16T09:01:05;99706.00;;;6.34;84.90
64679;BME280;51094;53.864;27.676;2023-04-16T09:03:32;99800.94;;;6.86;84.74
64679;BME280;51094;53.864;27.676;2023-04-16T09:06:02;99871.47;;;7.25;84.67
64679;BME280;51094;53.864;27.676;2023-04-16T09:08:30;99852.72;;;7.20;84.49
64679;BME280;51094;53.864;27.676;2023-04-16T09:10:58;99866.56;;;7.19;84.67
64679;BME280;51094;53.864;27.676;2023-04-16T09:13:25;99849.94;;;7.25;84.85
64679;BME280;51094;53.864;27.676;2023-04-16T09:15:53;99860.28;;;7.25;84.39
64679;BME280;51094;53.864;27.676;2023-04-16T09:18:20;99875.50;;;7.31;84.38
64679;BME280;51094;53.864;27.676;2023-04-16T09:20:50;99805.06;;;6.90;84.34
64679;BME280;51094;53.864;27.676;2023-04-16T09:23:17;99829.41;;;7.03;84.03
64679;BME280;51094;53.864;27.676;2023-04-16T09:25:44;99847.41;;;7.23;84.34
64679;BME280;51094;53.864;27.676;2023-04-16T09:28:11;99852.00;;;7.36;83.74
64679;BME280;51094;53.864;27.676;2023-04-16T09:30:38;99876.59;;;7.44;83.50
64679;BME280;51094;53.864;27.676;2023-04-16T09:33:17;99902.03;;;7.53;83.45
64679;BME280;51094;53.864;27.676;2023-04-16T09:35:49;99885.91;;;7.65;83.23
64679;BME280;51094;53.864;27.676;2023-04-16T09:38:17;99883.63;;;7.59;82.44
64679;BME280;51094;53.864;27.676;2023-04-16T09:40:44;99862.72;;;7.45;82.49
64679;BME280;51094;53.864;27.676;2023-04-16T09:43:15;99894.16;;;7.74;81.81
64679;BME280;51094;53.864;27.676;2023-04-16T09:45:48;99876.63;;;7.79;82.73
64679;BME280;51094;53.864;27.676;2023-04-16T09:48:27;99899.63;;;8.02;81.57
64679;BME280;51094;53.864;27.676;2023-04-16T09:50:54;99839.09;;;7.70;81.63
64679;BME280;51094;53.864;27.676;2023-04-16T09:53:26;99900.47;;;8.20;81.35
64679;BME280;51094;53.864;27.676;2023-04-16T09:55:57;99904.47;;;8.25;79.74
64679;BME280;51094;53.864;27.676;2023-04-16T09:58:24;99865.94;;;8.02;79.31
64679;BME280;51094;53.864;27.676;2023-04-16T10:00:55;99884.47;;;8.12;79.82
64679;BME280;51094;53.864;27.676;2023-04-16T10:03:33;99889.03;;;8.07;79.46
64679;BME280;51094;53.864;27.676;2023-04-16T10:08:49;99904.22;;;8.30;78.37
64679;BME280;51094;53.864;27.676;2023-04-16T10:11:18;99908.66;;;8.28;78.89
64679;BME280;51094;53.864;27.676;2023-04-16T10:13:45;99895.19;;;8.39;80.08
64679;BME280;51094;53.864;27.676;2023-04-16T10:16:12;99828.09;;;7.99;79.36
64679;BME280;51094;53.864;27.676;2023-04-16T10:18:41;99897.84;;;8.54;77.91
64679;BME280;51094;53.864;27.676;2023-04-16T10:21:09;99840.53;;;8.26;78.13
64679;BME280;51094;53.864;27.676;2023-04-16T10:23:39;99769.75;;;7.92;79.00
64679;BME280;51094;53.864;27.676;2023-04-16T10:26:06;99874.88;;;8.64;78.56
64679;BME280;51094;53.864;27.676;2023-04-16T10:28:33;99908.16;;;8.87;78.24
64679;BME280;51094;53.864;27.676;2023-04-16T10:31:04;99908.78;;;8.92;77.54
64679;BME280;51094;53.864;27.676;2023-04-16T10:33:38;99914.69;;;8.79;76.38
64679;BME280;51094;53.864;27.676;2023-04-16T10:36:17;99908.81;;;8.59;76.20
64679;BME280;51094;53.864;27.676;2023-04-16T10:38:49;99791.53;;;8.06;75.97
64679;BME280;51094;53.864;27.676;2023-04-16T10:41:21;99852.88;;;8.38;76.82
64679;BME280;51094;53.864;27.676;2023-04-16T10:43:49;99888.06;;;8.59;76.41
64679;BME280;51094;53.864;27.676;2023-04-16T10:48:48;99877.41;;;8.48;75.67
64679;BME280;51094;53.864;27.676;2023-04-16T10:51:34;99883.63;;;8.61;76.67
64679;BME280;51094;53.864;27.676;2023-04-16T10:54:19;99923.28;;;8.79;75.86
64679;BME280;51094;53.864;27.676;2023-04-16T10:56:46;99927.44;;;8.99;76.17
64679;BME280;51094;53.864;27.676;2023-04-16T10:59:17;99873.44;;;8.74;76.01
64679;BME280;51094;53.864;27.676;2023-04-16T11:01:50;99930.47;;;9.07;75.73
64679;BME280;51094;53.864;27.676;2023-04-16T11:12:23;99894.38;;;8.87;75.33
64679;BME280;51094;53.864;27.676;2023-04-16T11:14:57;99939.31;;;9.03;74.56
64679;BME280;51094;53.864;27.676;2023-04-16T11:17:28;99904.16;;;8.82;75.02
64679;BME280;51094;53.864;27.676;2023-04-16T11:19:55;99862.06;;;8.61;75.00
64679;BME280;51094;53.864;27.676;2023-04-16T11:22:23;99900.13;;;8.76;74.75
64679;BME280;51094;53.864;27.676;2023-04-16T11:24:54;99924.09;;;8.97;75.40
64679;BME280;51094;53.864;27.676;2023-04-16T11:27:24;99943.91;;;9.14;75.01
64679;BME280;51094;53.864;27.676;2023-04-16T11:30:03;99938.47;;;9.18;74.32
64679;BME280;51094;53.864;27.676;2023-04-16T11:32:31;99919.16;;;9.08;74.51
64679;BME280;51094;53.864;27.676;2023-04-16T11:35:00;99856.19;;;8.73;75.15
64679;BME280;51094;53.864;27.676;2023-04-16T11:37:33;99932.28;;;9.21;74.85
64679;BME280;51094;53.864;27.676;2023-04-16T11:40:02;99938.41;;;9.04;74.96
64679;BME280;51094;53.864;27.676;2023-04-16T11:42:33;99895.81;;;8.92;73.72
64679;BME280;51094;53.864;27.676;2023-04-16T11:45:03;99935.88;;;9.18;74.94
64679;BME280;51094;53.864;27.676;2023-04-16T11:47:30;99853.38;;;8.78;74.68
64679;BME280;51094;53.864;27.676;2023-04-16T11:50:15;99938.81;;;9.28;73.93
64679;BME280;51094;53.864;27.676;2023-04-16T11:52:41;99903.75;;;8.89;74.05
64679;BME280;51094;53.864;27.676;2023-04-16T11:55:08;99946.59;;;9.12;74.25
64679;BME280;51094;53.864;27.676;2023-04-16T11:57:35;99928.19;;;9.32;74.81
64679;BME280;51094;53.864;27.676;2023-04-16T12:00:04;99922.50;;;9.42;73.86
64679;BME280;51094;53.864;27.676;2023-04-16T12:02:41;99934.84;;;9.68;73.82
64679;BME280;51094;53.864;27.676;2023-04-16T12:05:31;99932.19;;;9.54;72.80
64679;BME280;51094;53.864;27.676;2023-04-16T12:08:04;99934.16;;;9.50;73.26
64679;BME280;51094;53.864;27.676;2023-04-16T12:10:35;99889.19;;;9.18;73.01
64679;BME280;51094;53.864;27.676;2023-04-16T12:13:13;99930.28;;;9.42;73.16
64679;BME280;51094;53.864;27.676;2023-04-16T12:15:48;99915.47;;;9.28;72.99
64679;BME280;51094;53.864;27.676;2023-04-16T12:18:16;99929.53;;;9.40;72.25
64679;BME280;51094;53.864;27.676;2023-04-16T12:20:43;99930.78;;;9.32;72.50
64679;BME280;51094;53.864;27.676;2023-04-16T12:25:49;99888.25;;;8.88;72.80
64679;BME280;51094;53.864;27.676;2023-04-16T12:28:46;99931.28;;;9.23;73.43
64679;BME280;51094;53.864;27.676;2023-04-16T12:31:13;99831.63;;;8.64;73.37
64679;BME280;51094;53.864;27.676;2023-04-16T12:33:41;99934.91;;;9.37;72.58
64679;BME280;51094;53.864;27.676;2023-04-16T12:36:17;99935.06;;;9.33;73.27
64679;BME280;51094;53.864;27.676;2023-04-16T12:38:45;99896.38;;;9.13;73.07
64679;BME280;51094;53.864;27.676;2023-04-16T12:41:11;99950.03;;;9.28;72.65
64679;BME280;51094;53.864;27.676;2023-04-16T12:43:38;99788.38;;;8.32;73.13
64679;BME280;51094;53.864;27.676;2023-04-16T12:46:05;99900.41;;;9.19;73.20
64679;BME280;51094;53.864;27.676;2023-04-16T12:48:32;99739.31;;;8.13;72.40
64679;BME280;51094;53.864;27.676;2023-04-16T12:50:59;99892.97;;;8.97;72.48
64679;BME280;51094;53.864;27.676;2023-04-16T12:53:26;99944.59;;;9.33;72.55
64679;BME280;51094;53.864;27.676;2023-04-16T12:55:52;99917.81;;;9.17;72.75
64679;BME280;51094;53.864;27.676;2023-04-16T12:58:19;99924.00;;;9.30;71.93
64679;BME280;51094;53.864;27.676;2023-04-16T13:00:46;99947.19;;;9.33;71.76
64679;BME280;51094;53.864;27.676;2023-04-16T13:03:13;99950.38;;;9.38;73.01
64679;BME280;51094;53.864;27.676;2023-04-16T13:05:40;99873.72;;;9.01;72.38
64679;BME280;51094;53.864;27.676;2023-04-16T13:08:07;99947.19;;;9.33;72.50
64679;BME280;51094;53.864;27.676;2023-04-16T13:10:34;99927.00;;;9.22;72.27
64679;BME280;51094;53.864;27.676;2023-04-16T13:13:01;99944.78;;;9.30;72.46
64679;BME280;51094;53.864;27.676;2023-04-16T13:15:27;99899.66;;;9.01;72.73
64679;BME280;51094;53.864;27.676;2023-04-16T13:17:54;99874.53;;;8.86;72.73
64679;BME280;51094;53.864;27.676;2023-04-16T13:20:21;99802.25;;;8.48;73.67
64679;BME280;51094;53.864;27.676;2023-04-16T13:22:50;99893.69;;;9.15;73.04